createdAt,value
2023-03-29T00:00:17.625Z,89.10
2023-03-29T00:01:35.797Z,88.71
2023-03-29T00:02:37.691Z,89.25
2023-03-29T00:03:39.309Z,89.00
2023-03-29T00:04:40.677Z,88.68
2023-03-29T00:05:41.954Z,89.09
2023-03-29T00:06:43.256Z,88.62
2023-03-29T00:07:44.627Z,88.95
2023-03-29T00:08:45.871Z,90.00
2023-03-29T00:09:47.095Z,89.37
2023-03-29T00:10:48.604Z,88.51
2023-03-29T00:11:49.846Z,88.55
2023-03-29T00:12:51.116Z,88.46
2023-03-29T00:13:52.586Z,89.12
2023-03-29T00:14:53.861Z,89.49
2023-03-29T00:15:55.131Z,89.88
2023-03-29T00:16:56.646Z,90.68
2023-03-29T00:17:57.971Z,90.65
2023-03-29T00:18:59.347Z,90.33
2023-03-29T00:20:00.549Z,90.71
2023-03-29T00:21:02.160Z,90.28
2023-03-29T00:22:04.060Z,91.09
2023-03-29T00:23:05.258Z,90.84
2023-03-29T00:24:06.479Z,90.96
2023-03-29T00:25:08.591Z,90.74
2023-03-29T00:26:09.868Z,91.30
2023-03-29T00:27:11.220Z,90.73
2023-03-29T00:28:12.559Z,90.79
2023-03-29T00:29:14.004Z,90.65
2023-03-29T00:30:15.542Z,91.30
2023-03-29T00:31:17.920Z,91.52
2023-03-29T00:32:19.648Z,91.79
2023-03-29T00:33:21.218Z,91.11
2023-03-29T00:34:23.478Z,91.54
2023-03-29T00:35:24.803Z,91.40
2023-03-29T00:36:26.524Z,91.40
2023-03-29T00:37:28.340Z,91.11
2023-03-29T00:38:30.044Z,91.28
2023-03-29T00:39:31.315Z,90.99
2023-03-29T00:40:33.051Z,91.33
2023-03-29T00:41:34.412Z,91.63
2023-03-29T00:42:35.655Z,91.25
2023-03-29T00:43:55.749Z,91.19
2023-03-29T00:45:00.098Z,91.32
2023-03-29T00:46:01.373Z,90.95
2023-03-29T00:47:03.367Z,91.38
2023-03-29T00:48:08.917Z,91.19
2023-03-29T00:49:11.860Z,91.52
2023-03-29T00:50:17.081Z,91.38
2023-03-29T00:51:20.047Z,91.39
2023-03-29T00:52:21.760Z,91.58
2023-03-29T00:53:32.173Z,91.69
2023-03-29T00:54:34.184Z,91.84
2023-03-29T00:55:37.381Z,91.08
2023-03-29T00:56:40.139Z,91.05
2023-03-29T00:57:42.624Z,90.70
2023-03-29T00:58:47.573Z,92.13
2023-03-29T00:59:50.224Z,91.73
2023-03-29T01:00:57.554Z,91.93
2023-03-29T01:02:06.317Z,90.23
2023-03-29T01:03:11.638Z,90.04
2023-03-29T01:04:23.560Z,90.90
2023-03-29T01:05:34.198Z,90.97
2023-03-29T01:06:36.940Z,90.85
2023-03-29T01:07:43.030Z,91.36
2023-03-29T01:08:47.073Z,90.55
2023-03-29T01:09:53.051Z,90.28
2023-03-29T01:10:56.540Z,90.57
2023-03-29T01:12:01.161Z,90.30
2023-03-29T01:13:06.741Z,90.84
2023-03-29T01:14:12.067Z,90.63
2023-03-29T01:15:24.887Z,90.30
2023-03-29T01:16:27.718Z,90.24
2023-03-29T01:17:29.358Z,90.51
2023-03-29T01:18:32.387Z,90.72
2023-03-29T01:19:40.389Z,90.29
2023-03-29T01:21:00.777Z,89.95
2023-03-29T01:22:11.173Z,90.24
2023-03-29T01:23:22.931Z,90.38
2023-03-29T01:24:36.986Z,90.42
2023-03-29T01:25:38.194Z,90.82
2023-03-29T01:26:39.520Z,90.72
2023-03-29T01:27:49.117Z,90.62
2023-03-29T01:29:03.338Z,91.16
2023-03-29T01:30:09.073Z,91.63
2023-03-29T01:31:24.113Z,91.07
2023-03-29T01:32:30.204Z,90.39
2023-03-29T01:33:34.172Z,91.20
2023-03-29T01:34:42.949Z,91.49
2023-03-29T01:35:47.859Z,92.08
2023-03-29T01:36:56.141Z,91.87
2023-03-29T01:38:04.124Z,91.89
2023-03-29T01:39:06.429Z,91.72
2023-03-29T01:40:08.254Z,91.60
2023-03-29T01:41:12.208Z,92.14
2023-03-29T01:42:36.133Z,92.58
2023-03-29T01:43:40.395Z,92.70
2023-03-29T01:44:49.510Z,91.46
2023-03-29T01:45:56.763Z,92.41
2023-03-29T01:47:18.426Z,92.25
2023-03-29T01:48:25.407Z,92.64
2023-03-29T01:49:44.897Z,92.45
2023-03-29T01:50:46.151Z,93.00
2023-03-29T01:52:22.702Z,93.11
2023-03-29T01:53:50.877Z,92.37
2023-03-29T01:55:00.268Z,92.21
2023-03-29T01:56:07.561Z,92.43
2023-03-29T01:57:09.912Z,92.00
2023-03-29T01:58:13.026Z,92.67
2023-03-29T01:59:17.197Z,92.57
2023-03-29T02:00:21.077Z,92.02
2023-03-29T02:01:25.964Z,93.00
2023-03-29T02:02:29.086Z,92.97
2023-03-29T02:03:31.222Z,93.07
2023-03-29T02:04:34.411Z,92.95
2023-03-29T02:05:36.824Z,93.26
2023-03-29T02:06:38.974Z,94.35
2023-03-29T02:07:41.232Z,94.42
2023-03-29T02:08:43.325Z,93.70
2023-03-29T02:09:45.312Z,94.31
2023-03-29T02:10:47.076Z,94.16
2023-03-29T02:11:49.898Z,94.41
2023-03-29T02:12:51.101Z,95.01
2023-03-29T02:13:52.733Z,94.36
2023-03-29T02:14:54.008Z,95.13
2023-03-29T02:15:55.437Z,95.18
2023-03-29T02:16:56.718Z,94.81
2023-03-29T02:17:58.371Z,95.43
2023-03-29T02:18:59.763Z,95.27
2023-03-29T02:20:08.456Z,95.08
2023-03-29T02:21:13.652Z,95.44
2023-03-29T02:22:16.805Z,94.70
2023-03-29T02:23:24.268Z,94.45
2023-03-29T02:24:26.080Z,94.30
2023-03-29T02:25:27.881Z,95.52
2023-03-29T02:26:29.178Z,94.30
2023-03-29T02:27:30.858Z,94.38
2023-03-29T02:28:32.559Z,94.98
2023-03-29T02:29:33.817Z,95.59
2023-03-29T02:30:43.843Z,94.65
2023-03-29T02:32:05.356Z,94.84
2023-03-29T02:33:10.873Z,94.99
2023-03-29T02:34:24.834Z,94.40
2023-03-29T02:35:38.905Z,95.19
2023-03-29T02:36:43.242Z,95.34
2023-03-29T02:37:46.866Z,95.34
2023-03-29T02:38:48.212Z,95.17
2023-03-29T02:39:50.922Z,96.14
2023-03-29T02:40:52.349Z,95.71
2023-03-29T02:41:54.600Z,95.92
2023-03-29T02:42:57.414Z,95.48
2023-03-29T02:43:59.771Z,95.41
2023-03-29T02:45:02.371Z,95.61
2023-03-29T02:46:05.551Z,95.64
2023-03-29T02:47:19.409Z,96.55
2023-03-29T02:48:22.007Z,95.67
2023-03-29T02:49:23.670Z,96.39
2023-03-29T02:50:28.383Z,96.34
2023-03-29T02:51:32.304Z,96.79
2023-03-29T02:52:38.825Z,97.25
2023-03-29T02:53:42.094Z,97.20
2023-03-29T02:54:45.214Z,96.95
2023-03-29T02:55:46.525Z,97.51
2023-03-29T02:56:58.415Z,96.82
2023-03-29T02:58:00.022Z,97.78
2023-03-29T02:59:01.352Z,97.23
2023-03-29T03:00:02.655Z,97.08
2023-03-29T03:01:04.536Z,96.65
2023-03-29T03:02:06.369Z,96.85
2023-03-29T03:03:08.469Z,97.01
2023-03-29T03:04:10.499Z,96.91
2023-03-29T03:05:11.834Z,96.94
2023-03-29T03:06:13.779Z,97.53
2023-03-29T03:07:15.029Z,97.66
2023-03-29T03:08:16.264Z,97.85
2023-03-29T03:09:17.804Z,97.33
2023-03-29T03:10:21.164Z,96.98
2023-03-29T03:11:22.413Z,96.66
2023-03-29T03:12:23.645Z,96.87
2023-03-29T03:13:24.926Z,96.25
2023-03-29T03:14:26.261Z,96.32
2023-03-29T03:15:27.625Z,96.71
2023-03-29T03:16:29.002Z,96.39
2023-03-29T03:17:30.371Z,96.24
2023-03-29T03:18:31.625Z,96.57
2023-03-29T03:19:32.859Z,96.36
2023-03-29T03:20:34.258Z,96.58
2023-03-29T03:21:35.911Z,96.06
2023-03-29T03:22:37.135Z,96.14
2023-03-29T03:23:38.501Z,96.01
2023-03-29T03:24:41.379Z,97.19
2023-03-29T03:25:44.639Z,96.42
2023-03-29T03:26:46.000Z,96.11
2023-03-29T03:27:48.379Z,96.22
2023-03-29T03:28:49.683Z,95.86
2023-03-29T03:30:11.112Z,96.43
2023-03-29T03:31:26.438Z,97.39
2023-03-29T03:32:51.302Z,96.83
2023-03-29T03:34:11.090Z,96.88
2023-03-29T03:35:20.605Z,96.08
2023-03-29T03:36:21.806Z,95.85
2023-03-29T03:37:23.036Z,96.97
2023-03-29T03:38:24.326Z,96.21
2023-03-29T03:39:31.358Z,96.20
2023-03-29T03:40:32.688Z,95.65
2023-03-29T03:41:34.336Z,96.05
2023-03-29T03:42:35.669Z,96.70
2023-03-29T03:43:36.905Z,96.82
2023-03-29T03:44:38.169Z,95.95
2023-03-29T03:45:56.052Z,96.21
2023-03-29T03:46:59.104Z,96.14
2023-03-29T03:48:00.402Z,97.22
2023-03-29T03:49:15.178Z,96.28
2023-03-29T03:50:17.832Z,96.16
2023-03-29T03:51:19.330Z,95.29
2023-03-29T03:52:20.724Z,96.45
2023-03-29T03:53:22.436Z,95.78
2023-03-29T03:54:42.249Z,95.93
2023-03-29T03:56:02.013Z,95.81
2023-03-29T03:57:08.321Z,95.02
2023-03-29T03:58:18.112Z,95.01
2023-03-29T03:59:19.525Z,95.06
2023-03-29T04:00:37.799Z,94.48
2023-03-29T04:01:54.866Z,95.18
2023-03-29T04:02:57.913Z,95.27
2023-03-29T04:03:59.420Z,95.21
2023-03-29T04:05:01.285Z,94.83
2023-03-29T04:06:07.455Z,94.90
2023-03-29T04:07:28.930Z,95.08
2023-03-29T04:08:43.455Z,94.85
2023-03-29T04:09:50.670Z,94.25
2023-03-29T04:11:04.181Z,94.47
2023-03-29T04:12:11.248Z,94.50
2023-03-29T04:13:14.336Z,94.81
2023-03-29T04:14:35.626Z,94.79
2023-03-29T04:15:52.001Z,95.49
2023-03-29T04:16:54.474Z,95.57
2023-03-29T04:18:18.656Z,95.28
2023-03-29T04:19:25.943Z,95.73
2023-03-29T04:20:27.595Z,95.58
2023-03-29T04:21:29.162Z,94.70
2023-03-29T04:22:30.499Z,95.30
2023-03-29T04:23:32.959Z,95.64
2023-03-29T04:24:34.361Z,95.55
2023-03-29T04:25:56.225Z,95.25
2023-03-29T04:27:12.487Z,94.97
2023-03-29T04:28:13.702Z,95.61
2023-03-29T04:29:26.040Z,95.78
2023-03-29T04:30:35.600Z,95.71
2023-03-29T04:31:45.759Z,95.38
2023-03-29T04:32:47.150Z,95.75
2023-03-29T04:33:48.524Z,95.03
2023-03-29T04:34:50.301Z,95.21
2023-03-29T04:35:51.633Z,95.09
2023-03-29T04:36:53.692Z,95.07
2023-03-29T04:37:57.996Z,95.52
2023-03-29T04:38:59.265Z,94.65
2023-03-29T04:40:01.390Z,95.46
2023-03-29T04:41:09.234Z,94.55
2023-03-29T04:42:28.291Z,94.35
2023-03-29T04:43:29.548Z,94.45
2023-03-29T04:44:41.016Z,94.53
2023-03-29T04:45:43.468Z,93.39
2023-03-29T04:46:49.550Z,93.72
2023-03-29T04:47:50.814Z,93.22
2023-03-29T04:48:53.640Z,93.66
2023-03-29T04:50:03.948Z,93.30
2023-03-29T04:51:12.729Z,93.00
2023-03-29T04:52:14.725Z,93.37
2023-03-29T04:53:16.043Z,93.86
2023-03-29T04:54:18.500Z,93.21
2023-03-29T04:55:43.153Z,92.77
2023-03-29T04:56:48.448Z,92.10
2023-03-29T04:58:09.238Z,92.51
2023-03-29T04:59:13.610Z,92.52
2023-03-29T05:00:15.382Z,92.34
2023-03-29T05:01:35.750Z,91.75
2023-03-29T05:02:37.066Z,91.87
2023-03-29T05:03:38.564Z,91.92
2023-03-29T05:04:49.201Z,91.36
2023-03-29T05:05:51.762Z,91.81
2023-03-29T05:06:53.076Z,91.81
2023-03-29T05:07:54.339Z,91.67
2023-03-29T05:09:00.865Z,91.07
2023-03-29T05:10:19.067Z,91.02
2023-03-29T05:11:20.449Z,90.75
2023-03-29T05:12:21.802Z,90.16
2023-03-29T05:13:27.488Z,90.46
2023-03-29T05:14:28.896Z,89.53
2023-03-29T05:15:30.903Z,89.91
2023-03-29T05:16:32.164Z,89.75
2023-03-29T05:17:34.541Z,89.56
2023-03-29T05:18:41.600Z,89.37
2023-03-29T05:19:44.158Z,89.68
2023-03-29T05:20:45.377Z,90.11
2023-03-29T05:21:50.723Z,90.18
2023-03-29T05:22:56.180Z,89.29
2023-03-29T05:24:16.630Z,89.73
2023-03-29T05:25:36.443Z,89.53
2023-03-29T05:26:37.933Z,89.79
2023-03-29T05:27:39.211Z,89.89
2023-03-29T05:28:43.513Z,90.14
2023-03-29T05:29:44.844Z,89.55
2023-03-29T05:31:04.335Z,89.57
2023-03-29T05:32:07.752Z,89.33
2023-03-29T05:33:09.121Z,89.06
2023-03-29T05:34:10.465Z,88.57
2023-03-29T05:35:16.479Z,88.66
2023-03-29T05:36:18.830Z,88.26
2023-03-29T05:37:23.171Z,87.64
2023-03-29T05:38:32.058Z,87.62
2023-03-29T05:39:35.711Z,87.81
2023-03-29T05:40:38.926Z,87.34
2023-03-29T05:42:08.537Z,86.92
2023-03-29T05:43:22.992Z,86.57
2023-03-29T05:44:24.355Z,86.94
2023-03-29T05:45:31.285Z,86.99
2023-03-29T05:46:32.686Z,86.11
2023-03-29T05:47:37.088Z,85.12
2023-03-29T05:48:38.924Z,85.35
2023-03-29T05:49:40.285Z,85.90
2023-03-29T05:50:48.868Z,85.95
2023-03-29T05:51:50.845Z,86.73
2023-03-29T05:52:52.264Z,86.76
2023-03-29T05:53:53.537Z,86.56
2023-03-29T05:54:55.307Z,85.91
2023-03-29T05:55:56.631Z,85.97
2023-03-29T05:57:00.351Z,86.34
2023-03-29T05:58:01.686Z,86.40
2023-03-29T05:59:06.394Z,86.95
2023-03-29T06:00:07.919Z,87.17
2023-03-29T06:01:14.041Z,87.95
2023-03-29T06:02:44.506Z,88.33
2023-03-29T06:03:46.514Z,88.47
2023-03-29T06:04:48.399Z,88.44
2023-03-29T06:06:00.010Z,89.81
2023-03-29T06:07:01.336Z,90.84
2023-03-29T06:08:03.132Z,91.26
2023-03-29T06:09:23.149Z,91.93
2023-03-29T06:10:33.283Z,92.10
2023-03-29T06:11:48.480Z,91.82
2023-03-29T06:13:19.153Z,91.85
2023-03-29T06:14:20.502Z,91.66
2023-03-29T06:15:27.648Z,92.06
2023-03-29T06:16:34.749Z,91.93
2023-03-29T06:17:36.295Z,92.39
2023-03-29T06:18:37.580Z,91.83
2023-03-29T06:19:38.888Z,91.69
2023-03-29T06:20:40.158Z,91.77
2023-03-29T06:21:46.755Z,91.38
2023-03-29T06:22:52.723Z,92.30
2023-03-29T06:23:54.097Z,91.75
2023-03-29T06:24:56.124Z,92.14
2023-03-29T06:26:01.424Z,92.09
2023-03-29T06:27:02.963Z,92.12
2023-03-29T06:28:05.189Z,91.72
2023-03-29T06:29:08.584Z,91.20
2023-03-29T06:30:10.886Z,91.53
2023-03-29T06:31:12.154Z,91.15
2023-03-29T06:32:14.309Z,91.80
2023-03-29T06:33:22.453Z,91.80
2023-03-29T06:34:28.849Z,91.65
2023-03-29T06:36:02.432Z,91.68
2023-03-29T06:37:05.049Z,91.64
2023-03-29T06:38:06.620Z,91.82
2023-03-29T06:39:27.388Z,91.27
2023-03-29T06:40:47.841Z,91.18
2023-03-29T06:41:50.019Z,91.49
2023-03-29T06:42:59.031Z,90.80
2023-03-29T06:44:22.113Z,91.16
2023-03-29T06:45:33.509Z,91.21
2023-03-29T06:46:37.707Z,91.19
2023-03-29T06:47:42.918Z,91.03
2023-03-29T06:48:44.157Z,90.92
2023-03-29T06:49:45.608Z,90.54
2023-03-29T06:51:07.259Z,90.60
2023-03-29T06:52:08.836Z,90.97
2023-03-29T06:53:10.320Z,90.60
2023-03-29T06:54:13.493Z,90.67
2023-03-29T06:55:25.978Z,89.89
2023-03-29T06:56:28.819Z,89.41
2023-03-29T06:57:43.040Z,89.30
2023-03-29T06:58:44.337Z,89.51
2023-03-29T07:00:01.697Z,89.04
2023-03-29T07:01:28.734Z,88.97
2023-03-29T07:02:56.745Z,87.96
2023-03-29T07:03:57.973Z,87.87
2023-03-29T07:05:05.396Z,87.72
2023-03-29T07:06:11.872Z,87.33
2023-03-29T07:07:15.489Z,86.58
2023-03-29T07:08:16.733Z,86.11
2023-03-29T07:09:29.376Z,85.13
2023-03-29T07:10:51.304Z,84.92
2023-03-29T07:11:52.656Z,85.20
2023-03-29T07:12:57.920Z,84.75
2023-03-29T07:13:59.426Z,83.41
2023-03-29T07:15:01.468Z,83.10
2023-03-29T07:16:22.885Z,82.80
2023-03-29T07:17:44.448Z,83.21
2023-03-29T07:18:45.911Z,83.26
2023-03-29T07:19:55.916Z,81.94
2023-03-29T07:21:12.204Z,80.54
2023-03-29T07:22:13.846Z,80.06
2023-03-29T07:23:25.416Z,80.26
2023-03-29T07:24:26.715Z,80.93
2023-03-29T07:25:28.249Z,81.35
2023-03-29T07:26:30.178Z,81.21
2023-03-29T07:27:32.578Z,79.45
2023-03-29T07:28:34.059Z,79.41
2023-03-29T07:29:37.162Z,79.30
2023-03-29T07:30:38.432Z,79.74
2023-03-29T07:31:51.660Z,79.45
2023-03-29T07:33:13.194Z,78.97
2023-03-29T07:34:20.559Z,78.89
2023-03-29T07:35:21.849Z,79.26
2023-03-29T07:36:23.182Z,79.46
2023-03-29T07:37:25.002Z,79.94
2023-03-29T07:38:27.522Z,80.35
2023-03-29T07:39:35.229Z,80.36
2023-03-29T07:40:57.033Z,80.43
2023-03-29T07:42:18.564Z,80.54
2023-03-29T07:43:20.662Z,80.97
2023-03-29T07:44:22.125Z,79.57
2023-03-29T07:45:26.594Z,79.67
2023-03-29T07:46:34.169Z,79.20
2023-03-29T07:47:35.450Z,79.01
2023-03-29T07:48:37.206Z,78.64
2023-03-29T07:49:41.336Z,77.66
2023-03-29T07:50:42.704Z,76.53
2023-03-29T07:51:43.986Z,75.14
2023-03-29T07:52:48.175Z,74.57
2023-03-29T07:53:49.891Z,74.40
2023-03-29T07:55:13.070Z,73.38
2023-03-29T07:56:27.681Z,74.16
2023-03-29T07:57:51.926Z,73.98
2023-03-29T07:58:53.242Z,73.34
2023-03-29T07:59:54.504Z,73.37
2023-03-29T08:01:00.921Z,72.76
2023-03-29T08:02:21.503Z,72.76
2023-03-29T08:03:25.912Z,72.04
2023-03-29T08:04:27.208Z,72.08
2023-03-29T08:05:47.024Z,72.25
2023-03-29T08:06:49.933Z,71.08
2023-03-29T08:07:52.092Z,71.30
2023-03-29T08:09:01.094Z,70.49
2023-03-29T08:10:03.328Z,69.65
2023-03-29T08:11:27.527Z,71.10
2023-03-29T08:12:35.469Z,70.99
2023-03-29T08:13:36.808Z,71.13
2023-03-29T08:14:56.509Z,70.16
2023-03-29T08:16:08.734Z,69.81
2023-03-29T08:17:14.577Z,68.71
2023-03-29T08:18:21.368Z,68.39
2023-03-29T08:19:22.653Z,68.87
2023-03-29T08:20:35.296Z,68.66
2023-03-29T08:21:38.321Z,68.34
2023-03-29T08:22:39.774Z,67.43
2023-03-29T08:23:58.360Z,66.62
2023-03-29T08:25:04.878Z,67.39
2023-03-29T08:26:10.845Z,66.75
2023-03-29T08:27:13.258Z,66.43
2023-03-29T08:28:14.514Z,67.47
2023-03-29T08:29:20.884Z,67.61
2023-03-29T08:30:22.206Z,67.52
2023-03-29T08:31:24.393Z,66.32
2023-03-29T08:32:26.331Z,65.98
2023-03-29T08:33:27.596Z,65.79
2023-03-29T08:34:39.818Z,65.05
2023-03-29T08:35:55.444Z,66.34
2023-03-29T08:37:02.616Z,66.41
2023-03-29T08:38:12.214Z,65.13
2023-03-29T08:39:13.517Z,65.03
2023-03-29T08:40:21.451Z,64.30
2023-03-29T08:41:37.839Z,64.50
2023-03-29T08:42:53.935Z,64.71
2023-03-29T08:44:05.950Z,65.88
2023-03-29T08:45:28.571Z,66.22
2023-03-29T08:46:38.781Z,66.34
2023-03-29T08:48:11.786Z,67.07
2023-03-29T08:49:14.866Z,65.92
2023-03-29T08:50:17.676Z,66.45
2023-03-29T08:51:25.872Z,65.88
2023-03-29T08:52:32.317Z,66.25
2023-03-29T08:53:46.419Z,66.10
2023-03-29T08:54:55.588Z,66.53
2023-03-29T08:55:58.937Z,66.07
2023-03-29T08:57:25.532Z,64.95
2023-03-29T08:58:32.184Z,64.37
2023-03-29T08:59:33.854Z,64.15
2023-03-29T09:00:41.301Z,63.58
2023-03-29T09:01:43.327Z,63.06
2023-03-29T09:02:45.550Z,63.55
2023-03-29T09:03:56.070Z,63.39
2023-03-29T09:05:25.666Z,63.00
2023-03-29T09:06:32.354Z,63.78
2023-03-29T09:07:47.533Z,62.14
2023-03-29T09:08:50.836Z,62.31
2023-03-29T09:09:54.272Z,62.62
2023-03-29T09:11:21.876Z,60.93
2023-03-29T09:12:36.677Z,59.50
2023-03-29T09:13:46.081Z,61.15
2023-03-29T09:14:52.208Z,60.79
2023-03-29T09:16:05.715Z,61.51
2023-03-29T09:17:19.709Z,60.52
2023-03-29T09:18:33.432Z,60.39
2023-03-29T09:19:39.295Z,59.28
2023-03-29T09:21:00.026Z,59.18
2023-03-29T09:22:09.044Z,58.34
2023-03-29T09:23:17.610Z,57.71
2023-03-29T09:24:51.183Z,58.59
2023-03-29T09:26:07.173Z,58.69
2023-03-29T09:27:27.476Z,57.63
2023-03-29T09:28:41.958Z,56.30
2023-03-29T09:29:52.471Z,56.87
2023-03-29T09:31:02.335Z,56.40
2023-03-29T09:32:06.755Z,56.43
2023-03-29T09:33:08.160Z,57.84
2023-03-29T09:34:32.950Z,56.41
2023-03-29T09:35:46.148Z,56.12
2023-03-29T09:36:53.286Z,55.81
2023-03-29T09:37:55.756Z,54.91
2023-03-29T09:38:57.100Z,55.20
2023-03-29T09:40:10.145Z,55.16
2023-03-29T09:41:30.453Z,54.67
2023-03-29T09:42:34.284Z,54.20
2023-03-29T09:43:37.401Z,54.69
2023-03-29T09:44:54.042Z,54.00
2023-03-29T09:46:04.063Z,54.38
2023-03-29T09:47:11.622Z,55.06
2023-03-29T09:48:14.920Z,55.37
2023-03-29T09:49:22.870Z,55.54
2023-03-29T09:50:31.330Z,55.25
2023-03-29T09:51:35.905Z,54.53
2023-03-29T09:52:37.316Z,54.94
2023-03-29T09:53:47.267Z,55.76
2023-03-29T09:55:05.040Z,53.59
2023-03-29T09:56:16.427Z,54.21
2023-03-29T09:57:25.894Z,55.04
2023-03-29T09:58:28.602Z,55.05
2023-03-29T09:59:30.189Z,54.43
2023-03-29T10:00:31.446Z,54.11
2023-03-29T10:01:40.375Z,54.47
2023-03-29T10:02:49.621Z,53.97
2023-03-29T10:03:52.104Z,53.36
2023-03-29T10:04:54.011Z,54.19
2023-03-29T10:05:56.420Z,54.19
2023-03-29T10:06:58.551Z,52.60
2023-03-29T10:08:00.874Z,52.34
2023-03-29T10:09:02.632Z,52.90
2023-03-29T10:10:09.285Z,52.36
2023-03-29T10:11:17.667Z,52.42
2023-03-29T10:12:19.469Z,52.58
2023-03-29T10:13:22.813Z,51.28
2023-03-29T10:14:30.141Z,50.78
2023-03-29T10:15:31.515Z,50.68
2023-03-29T10:16:40.593Z,51.33
2023-03-29T10:17:41.935Z,50.62
2023-03-29T10:18:43.476Z,51.55
2023-03-29T10:19:52.285Z,51.37
2023-03-29T10:20:57.944Z,51.39
2023-03-29T10:22:00.204Z,51.86
2023-03-29T10:23:01.593Z,51.39
2023-03-29T10:24:02.863Z,51.16
2023-03-29T10:25:04.807Z,50.68
2023-03-29T10:26:10.285Z,51.03
2023-03-29T10:27:11.614Z,50.27
2023-03-29T10:28:17.744Z,49.60
2023-03-29T10:29:19.008Z,50.23
2023-03-29T10:30:22.154Z,50.19
2023-03-29T10:31:24.517Z,50.22
2023-03-29T10:32:32.879Z,49.36
2023-03-29T10:33:35.430Z,48.49
2023-03-29T10:34:36.765Z,48.75
2023-03-29T10:35:39.068Z,49.16
2023-03-29T10:36:41.372Z,48.81
2023-03-29T10:37:43.353Z,49.30
2023-03-29T10:38:44.816Z,48.08
2023-03-29T10:39:47.379Z,48.16
2023-03-29T10:40:50.713Z,48.77
2023-03-29T10:41:51.957Z,49.83
2023-03-29T10:42:53.177Z,48.72
2023-03-29T10:43:54.440Z,48.39
2023-03-29T10:44:59.248Z,48.12
2023-03-29T10:46:19.748Z,48.15
2023-03-29T10:47:21.608Z,48.15
2023-03-29T10:48:28.637Z,48.44
2023-03-29T10:49:29.880Z,48.50
2023-03-29T10:50:35.630Z,50.10
2023-03-29T10:51:36.951Z,49.68
2023-03-29T10:52:39.789Z,49.88
2023-03-29T10:53:41.172Z,49.51
2023-03-29T10:54:42.752Z,49.14
2023-03-29T10:55:50.017Z,49.94
2023-03-29T10:56:58.919Z,48.18
2023-03-29T10:58:00.166Z,48.55
2023-03-29T10:59:04.158Z,48.44
2023-03-29T11:00:05.466Z,48.43
2023-03-29T11:01:11.549Z,46.54
2023-03-29T11:02:15.669Z,46.05
2023-03-29T11:03:21.591Z,46.92
2023-03-29T11:04:23.149Z,46.91
2023-03-29T11:05:33.636Z,48.04
2023-03-29T11:06:39.971Z,48.63
2023-03-29T11:07:41.161Z,47.95
2023-03-29T11:08:58.165Z,46.37
2023-03-29T11:10:18.393Z,46.51
2023-03-29T11:11:28.895Z,45.75
2023-03-29T11:12:55.445Z,44.60
2023-03-29T11:14:02.758Z,45.62
2023-03-29T11:15:16.261Z,45.79
2023-03-29T11:16:31.771Z,45.74
2023-03-29T11:17:32.971Z,46.20
2023-03-29T11:18:43.432Z,46.36
2023-03-29T11:20:05.196Z,47.69
2023-03-29T11:21:22.837Z,47.61
2023-03-29T11:22:30.642Z,46.17
2023-03-29T11:23:34.635Z,46.55
2023-03-29T11:24:50.893Z,46.00
2023-03-29T11:25:57.923Z,45.60
2023-03-29T11:27:05.168Z,46.45
2023-03-29T11:28:25.092Z,46.68
2023-03-29T11:29:52.372Z,45.03
2023-03-29T11:31:04.494Z,44.54
2023-03-29T11:32:15.003Z,44.89
2023-03-29T11:33:21.804Z,44.96
2023-03-29T11:34:32.611Z,44.07
2023-03-29T11:35:42.956Z,44.13
2023-03-29T11:37:02.862Z,44.81
2023-03-29T11:38:06.855Z,45.03
2023-03-29T11:39:08.104Z,44.31
2023-03-29T11:40:12.191Z,43.72
2023-03-29T11:41:16.305Z,43.49
2023-03-29T11:42:23.309Z,43.46
2023-03-29T11:43:27.567Z,44.07
2023-03-29T11:44:30.207Z,43.43
2023-03-29T11:45:51.996Z,42.71
2023-03-29T11:47:00.089Z,43.06
2023-03-29T11:48:02.410Z,43.77
2023-03-29T11:49:12.243Z,42.75
2023-03-29T11:50:22.839Z,42.75
2023-03-29T11:51:34.671Z,44.35
2023-03-29T11:52:37.491Z,43.43
2023-03-29T11:53:45.650Z,43.12
2023-03-29T11:54:47.017Z,42.94
2023-03-29T11:55:50.344Z,43.19
2023-03-29T11:57:01.707Z,43.11
2023-03-29T11:58:05.796Z,42.32
2023-03-29T11:59:14.135Z,43.12
2023-03-29T12:00:39.700Z,44.31
2023-03-29T12:01:52.333Z,44.98
2023-03-29T12:03:00.783Z,43.77
2023-03-29T12:04:06.048Z,43.85
2023-03-29T12:05:17.752Z,44.18
2023-03-29T12:06:31.511Z,44.54
2023-03-29T12:07:36.584Z,45.15
2023-03-29T12:08:44.525Z,44.38
2023-03-29T12:09:50.220Z,43.99
2023-03-29T12:10:56.212Z,43.54
2023-03-29T12:12:03.499Z,44.31
2023-03-29T12:13:29.292Z,43.84
2023-03-29T12:14:43.156Z,44.34
2023-03-29T12:15:53.788Z,45.29
2023-03-29T12:17:00.971Z,44.58
2023-03-29T12:18:06.889Z,45.36
2023-03-29T12:19:21.086Z,44.66
2023-03-29T12:20:23.786Z,45.00
2023-03-29T12:21:27.608Z,44.91
2023-03-29T12:22:29.144Z,45.41
2023-03-29T12:23:31.604Z,45.24
2023-03-29T12:24:34.506Z,44.97
2023-03-29T12:25:44.812Z,45.20
2023-03-29T12:27:18.414Z,45.39
2023-03-29T12:28:38.355Z,45.54
2023-03-29T12:29:39.597Z,45.19
2023-03-29T12:30:48.785Z,45.29
2023-03-29T12:31:59.741Z,45.10
2023-03-29T12:33:07.821Z,44.90
2023-03-29T12:34:41.345Z,44.69
2023-03-29T12:36:18.136Z,44.79
2023-03-29T12:37:34.269Z,44.89
2023-03-29T12:38:53.920Z,44.93
2023-03-29T12:40:15.208Z,45.06
2023-03-29T12:41:36.576Z,45.72
2023-03-29T12:43:04.804Z,45.14
2023-03-29T12:44:26.066Z,45.41
2023-03-29T12:45:42.067Z,45.04
2023-03-29T12:46:43.632Z,45.28
2023-03-29T12:47:45.380Z,44.82
2023-03-29T12:48:49.390Z,45.01
2023-03-29T12:49:58.067Z,45.54
2023-03-29T12:51:00.450Z,44.55
2023-03-29T12:52:08.145Z,44.76
2023-03-29T12:53:23.871Z,45.12
2023-03-29T12:54:28.325Z,45.03
2023-03-29T12:55:31.443Z,44.78
2023-03-29T12:56:39.253Z,44.69
2023-03-29T12:57:41.933Z,43.90
2023-03-29T12:58:52.029Z,45.03
2023-03-29T12:59:53.341Z,45.36
2023-03-29T13:01:17.707Z,45.81
2023-03-29T13:02:18.958Z,44.98
2023-03-29T13:03:20.374Z,44.82
2023-03-29T13:04:21.806Z,43.69
2023-03-29T13:05:31.392Z,44.00
2023-03-29T13:06:34.289Z,43.80
2023-03-29T13:07:45.622Z,44.66
2023-03-29T13:08:57.091Z,45.41
2023-03-29T13:09:59.576Z,45.85
2023-03-29T13:11:00.881Z,44.72
2023-03-29T13:12:17.332Z,44.53
2023-03-29T13:13:21.673Z,45.16
2023-03-29T13:14:25.244Z,45.62
2023-03-29T13:15:26.937Z,46.83
2023-03-29T13:16:33.518Z,45.43
2023-03-29T13:17:45.066Z,44.40
2023-03-29T13:19:05.015Z,45.39
2023-03-29T13:20:18.581Z,44.65
2023-03-29T13:21:26.564Z,45.64
2023-03-29T13:22:33.522Z,44.75
2023-03-29T13:23:55.134Z,44.81
2023-03-29T13:25:05.412Z,43.31
2023-03-29T13:26:06.677Z,44.15
2023-03-29T13:27:16.769Z,44.98
2023-03-29T13:28:27.389Z,44.96
2023-03-29T13:29:47.026Z,44.08
2023-03-29T13:30:48.262Z,44.91
2023-03-29T13:32:04.197Z,45.27
2023-03-29T13:33:24.348Z,44.68
2023-03-29T13:34:44.914Z,45.30
2023-03-29T13:35:48.970Z,46.04
2023-03-29T13:36:57.641Z,45.60
2023-03-29T13:37:58.911Z,46.47
2023-03-29T13:39:02.258Z,46.93
2023-03-29T13:40:23.498Z,47.10
2023-03-29T13:41:31.872Z,47.19
2023-03-29T13:42:33.314Z,46.95
2023-03-29T13:43:36.217Z,47.38
2023-03-29T13:44:44.199Z,46.97
2023-03-29T13:45:51.124Z,47.13
2023-03-29T13:47:02.924Z,47.88
2023-03-29T13:48:23.013Z,47.80
2023-03-29T13:49:25.731Z,49.07
2023-03-29T13:50:34.566Z,49.72
2023-03-29T13:51:47.473Z,49.12
2023-03-29T13:53:18.206Z,48.96
2023-03-29T13:54:38.359Z,49.79
2023-03-29T13:55:48.121Z,49.15
2023-03-29T13:57:18.740Z,49.11
2023-03-29T13:58:28.893Z,48.79
2023-03-29T13:59:39.418Z,49.22
2023-03-29T14:00:45.264Z,48.37
2023-03-29T14:01:49.762Z,48.96
2023-03-29T14:03:02.781Z,50.57
2023-03-29T14:04:05.542Z,50.41
2023-03-29T14:05:09.492Z,50.73
2023-03-29T14:06:13.191Z,50.20
2023-03-29T14:07:14.922Z,49.63
2023-03-29T14:08:16.116Z,50.87
2023-03-29T14:09:17.492Z,51.72
2023-03-29T14:10:26.537Z,52.43
2023-03-29T14:11:29.087Z,52.46
2023-03-29T14:12:33.281Z,52.43
2023-03-29T14:13:34.647Z,51.32
2023-03-29T14:14:37.209Z,51.86
2023-03-29T14:15:54.097Z,53.34
2023-03-29T14:16:56.176Z,53.99
2023-03-29T14:18:00.340Z,54.03
2023-03-29T14:19:03.571Z,55.21
2023-03-29T14:20:05.567Z,56.13
2023-03-29T14:21:07.432Z,57.01
2023-03-29T14:22:12.785Z,57.41
2023-03-29T14:23:18.206Z,57.57
2023-03-29T14:24:25.019Z,59.13